Time;durP1;ratioP1;P1;durP2;ratioP2;P2;SDS_P1;SDS_P2;PMS_P1;PMS_P2;Temp;Humidity;BMP_temperature;BMP_pressure;BME280_temperature;BME280_humidity;BME280_pressure;Samples;Min_cycle;Max_cycle;Signal;HPM_P1;HPM_P2
2023/10/21 00:01:19;;;;;;;;;;;17.60;68.30;;;;;;10204029;28;95137;-55
2023/10/21 00:06:22;;;;;;;;;;;17.50;68.30;;;;;;10205290;28;95137;-53
2023/10/21 00:11:25;;;;;;;;;;;17.50;68.20;;;;;;10195816;28;96912;-55
2023/10/21 00:16:27;;;;;;;;;;;17.50;68.30;;;;;;10201713;28;92946;-52
2023/10/21 00:21:29;;;;;;;;;;;17.50;68.30;;;;;;10204209;28;94552;-53
2023/10/21 00:26:31;;;;;;;;;;;17.50;68.30;;;;;;10198877;28;93757;-52
2023/10/21 00:31:33;;;;;;;;;;;17.50;68.40;;;;;;10198555;28;94629;-52
2023/10/21 00:36:34;;;;;;;;;;;17.50;68.40;;;;;;10196820;28;94652;-53
2023/10/21 00:41:37;;;;;;;;;;;17.50;68.40;;;;;;10205430;28;94429;-55
2023/10/21 00:46:40;;;;;;;;;;;17.40;68.30;;;;;;10189757;28;94022;-53
2023/10/21 00:51:42;;;;;;;;;;;17.40;68.30;;;;;;10185886;28;92696;-52
2023/10/21 00:56:43;;;;;;;;;;;17.40;68.30;;;;;;10193178;28;94483;-52
2023/10/21 01:07:00;;;;;;;;;;;17.40;68.50;;;;;;10236976;23;94973;-65
2023/10/21 01:12:02;;;;;;;;;;;17.40;68.40;;;;;;10220277;28;94270;-66
2023/10/21 01:17:04;;;;;;;;;;;17.40;68.40;;;;;;10220534;28;94759;-66
2023/10/21 01:22:05;;;;;;;;;;;17.40;68.40;;;;;;10221513;28;94586;-66
2023/10/21 01:27:07;;;;;;;;;;;17.40;68.40;;;;;;10243330;28;94415;-66
2023/10/21 01:32:09;;;;;;;;;;;17.40;68.40;;;;;;10241067;28;93453;-66
2023/10/21 01:37:11;;;;;;;;;;;17.40;68.40;;;;;;10241644;28;92756;-67
2023/10/21 01:42:13;;;;;;;;;;;17.30;68.40;;;;;;10237733;28;94869;-66
2023/10/21 01:47:15;;;;;;;;;;;17.30;68.30;;;;;;10235358;28;93950;-66
2023/10/21 01:52:17;;;;;;;;;;;17.30;68.40;;;;;;10234832;28;97342;-66
2023/10/21 01:57:19;;;;;;;;;;;17.30;68.30;;;;;;10244033;28;94487;-66
2023/10/21 02:02:21;;;;;;;;;;;17.30;68.40;;;;;;10241493;28;93460;-66
2023/10/21 02:07:23;;;;;;;;;;;17.40;68.30;;;;;;10240896;28;93669;-66
2023/10/21 02:12:25;;;;;;;;;;;17.30;68.30;;;;;;10241308;28;94530;-66
2023/10/21 02:17:29;;;;;;;;;;;17.40;68.30;;;;;;10232485;28;93450;-66
2023/10/21 02:22:32;;;;;;;;;;;17.40;68.20;;;;;;10204065;28;95765;-66
2023/10/21 02:27:34;;;;;;;;;;;17.40;68.20;;;;;;10249756;28;93652;-66
2023/10/21 02:32:37;;;;;;;;;;;17.40;68.20;;;;;;10247967;28;94455;-66
2023/10/21 02:37:39;;;;;;;;;;;17.40;68.10;;;;;;10248614;28;94832;-66
2023/10/21 02:42:41;;;;;;;;;;;17.40;68.10;;;;;;10245508;28;97148;-66
2023/10/21 02:47:43;;;;;;;;;;;17.40;68.10;;;;;;10244441;28;93989;-66
2023/10/21 02:52:45;;;;;;;;;;;17.40;68.00;;;;;;10235329;28;94423;-66
2023/10/21 02:57:47;;;;;;;;;;;17.40;68.00;;;;;;10241975;28;94427;-66
2023/10/21 03:02:49;;;;;;;;;;;17.40;68.00;;;;;;10207437;28;93888;-66
2023/10/21 03:07:51;;;;;;;;;;;17.40;67.90;;;;;;10233382;28;94651;-66
2023/10/21 03:12:53;;;;;;;;;;;17.40;67.90;;;;;;10236408;28;93614;-66
2023/10/21 03:17:55;;;;;;;;;;;17.40;67.90;;;;;;10235754;28;92882;-66
2023/10/21 03:22:57;;;;;;;;;;;17.40;67.80;;;;;;10237116;28;94780;-66
2023/10/21 03:27:58;;;;;;;;;;;17.40;67.90;;;;;;10239904;28;93915;-66
2023/10/21 03:33:02;;;;;;;;;;;17.40;67.90;;;;;;10211428;28;95797;-65
2023/10/21 03:38:04;;;;;;;;;;;17.40;67.90;;;;;;10230631;28;93243;-66
2023/10/21 03:43:07;;;;;;;;;;;17.30;67.80;;;;;;10256827;28;94675;-66
2023/10/21 03:48:09;;;;;;;;;;;17.30;67.80;;;;;;10238629;28;93424;-66
2023/10/21 03:53:13;;;;;;;;;;;17.30;67.70;;;;;;10232490;28;93991;-66
2023/10/21 03:58:16;;;;;;;;;;;17.30;67.70;;;;;;10227411;28;93572;-66
2023/10/21 04:03:19;;;;;;;;;;;17.30;67.70;;;;;;10229895;28;93438;-66
2023/10/21 04:08:21;;;;;;;;;;;17.30;67.70;;;;;;10212150;28;93549;-66
2023/10/21 04:13:23;;;;;;;;;;;17.30;67.70;;;;;;10228339;28;93544;-66
2023/10/21 04:18:25;;;;;;;;;;;17.30;67.70;;;;;;10244066;28;93793;-66
2023/10/21 04:23:27;;;;;;;;;;;17.30;67.70;;;;;;10213514;28;96816;-66
2023/10/21 04:28:29;;;;;;;;;;;17.30;67.70;;;;;;10245858;28;93392;-66
2023/10/21 04:33:31;;;;;;;;;;;17.20;67.60;;;;;;10244370;28;94730;-66
2023/10/21 04:38:33;;;;;;;;;;;17.30;67.70;;;;;;10245729;28;94400;-66
2023/10/21 04:43:35;;;;;;;;;;;17.30;67.70;;;;;;10203161;28;94125;-66
2023/10/21 04:48:37;;;;;;;;;;;17.20;67.60;;;;;;10234943;28;94436;-65
2023/10/21 04:53:39;;;;;;;;;;;17.20;67.70;;;;;;10236807;28;94810;-66
2023/10/21 04:58:41;;;;;;;;;;;17.20;67.60;;;;;;10208338;28;93814;-66
2023/10/21 05:03:43;;;;;;;;;;;17.20;67.80;;;;;;10231600;28;92883;-66
2023/10/21 05:08:46;;;;;;;;;;;17.30;67.90;;;;;;10241972;28;94631;-65
2023/10/21 05:13:47;;;;;;;;;;;17.30;68.00;;;;;;10241119;28;96960;-65
2023/10/21 05:18:49;;;;;;;;;;;17.20;68.10;;;;;;10218889;28;94460;-66
2023/10/21 05:23:51;;;;;;;;;;;17.20;68.20;;;;;;10243948;28;94528;-66
2023/10/21 05:28:53;;;;;;;;;;;17.20;68.30;;;;;;10223396;28;93412;-66
2023/10/21 05:33:57;;;;;;;;;;;17.30;68.50;;;;;;10214902;28;95076;-66
2023/10/21 05:38:59;;;;;;;;;;;17.30;68.60;;;;;;10232868;28;95247;-66
2023/10/21 05:44:03;;;;;;;;;;;17.30;68.60;;;;;;10246480;28;94618;-66
2023/10/21 05:49:05;;;;;;;;;;;17.30;68.80;;;;;;10247297;28;93218;-66
2023/10/21 05:54:07;;;;;;;;;;;17.20;68.70;;;;;;10237254;28;93258;-66
2023/10/21 05:59:09;;;;;;;;;;;17.30;68.80;;;;;;10230764;28;93564;-66
2023/10/21 06:04:10;;;;;;;;;;;17.30;68.90;;;;;;10225507;28;96264;-66
2023/10/21 06:09:13;;;;;;;;;;;17.20;68.90;;;;;;10232848;28;93644;-66
2023/10/21 06:14:15;;;;;;;;;;;17.30;69.10;;;;;;10241031;28;93595;-66
2023/10/21 06:19:17;;;;;;;;;;;17.30;69.20;;;;;;10251982;28;94847;-66
2023/10/21 06:24:18;;;;;;;;;;;17.30;69.20;;;;;;10242393;28;93488;-68
2023/10/21 06:29:23;;;;;;;;;;;17.30;69.30;;;;;;10222233;28;94017;-67
2023/10/21 06:34:25;;;;;;;;;;;17.30;69.30;;;;;;10235965;28;94490;-66
2023/10/21 06:39:27;;;;;;;;;;;17.30;69.40;;;;;;10238433;28;92697;-67
2023/10/21 06:44:29;;;;;;;;;;;17.30;69.40;;;;;;10229232;28;93433;-66
2023/10/21 06:49:30;;;;;;;;;;;17.30;69.50;;;;;;10240768;28;93445;-66
2023/10/21 06:54:32;;;;;;;;;;;17.30;69.40;;;;;;10229382;28;96368;-65
2023/10/21 06:59:34;;;;;;;;;;;17.40;69.50;;;;;;10226665;28;94174;-69
2023/10/21 07:04:37;;;;;;;;;;;17.40;70.20;;;;;;10223232;28;93748;-67
2023/10/21 07:09:39;;;;;;;;;;;17.60;70.50;;;;;;10225547;28;94333;-66
2023/10/21 07:14:41;;;;;;;;;;;17.80;70.60;;;;;;10231660;28;93868;-66
2023/10/21 07:19:43;;;;;;;;;;;17.80;70.70;;;;;;10244524;28;93456;-66
2023/10/21 07:24:45;;;;;;;;;;;17.80;71.10;;;;;;10237083;28;95360;-67
2023/10/21 07:29:47;;;;;;;;;;;17.80;71.20;;;;;;10242732;28;93051;-66
2023/10/21 07:34:49;;;;;;;;;;;17.80;71.20;;;;;;10224729;28;93652;-67
2023/10/21 07:39:51;;;;;;;;;;;17.80;72.30;;;;;;10233201;28;94107;-67
2023/10/21 07:44:53;;;;;;;;;;;17.80;71.20;;;;;;10218216;28;96995;-67
2023/10/21 07:49:55;;;;;;;;;;;17.80;70.90;;;;;;10226573;28;93799;-66
2023/10/21 07:54:57;;;;;;;;;;;17.70;70.90;;;;;;10235399;28;94488;-66
2023/10/21 07:59:59;;;;;;;;;;;17.70;70.90;;;;;;10232384;28;95068;-66
2023/10/21 08:05:01;;;;;;;;;;;17.70;70.90;;;;;;10245093;28;94428;-66
2023/10/21 08:10:05;;;;;;;;;;;17.70;70.90;;;;;;10234158;28;94558;-67
2023/10/21 08:15:07;;;;;;;;;;;17.60;70.80;;;;;;10235993;28;93420;-67
2023/10/21 08:20:09;;;;;;;;;;;17.60;70.70;;;;;;10245691;28;92723;-66
2023/10/21 08:25:12;;;;;;;;;;;17.60;70.80;;;;;;10245329;28;94517;-66
2023/10/21 08:30:14;;;;;;;;;;;17.50;70.70;;;;;;10222655;28;95238;-66
2023/10/21 08:35:16;;;;;;;;;;;17.50;70.70;;;;;;10223077;28;97124;-66
2023/10/21 08:40:18;;;;;;;;;;;17.50;70.60;;;;;;10232778;28;94373;-66
2023/10/21 08:45:20;;;;;;;;;;;17.50;70.70;;;;;;10243994;28;94596;-66
2023/10/21 08:50:23;;;;;;;;;;;17.50;70.70;;;;;;10235328;28;93437;-67
2023/10/21 08:55:25;;;;;;;;;;;17.50;70.50;;;;;;10235965;28;94725;-66
2023/10/21 09:00:27;;;;;;;;;;;17.50;70.50;;;;;;10242454;28;94875;-66
2023/10/21 09:05:29;;;;;;;;;;;17.50;70.40;;;;;;10244552;28;94572;-66
2023/10/21 09:10:34;;;;;;;;;;;17.50;70.50;;;;;;10244237;28;93637;-67
2023/10/21 09:15:37;;;;;;;;;;;17.50;70.50;;;;;;10225280;28;93229;-66
2023/10/21 09:20:39;;;;;;;;;;;17.50;70.40;;;;;;10234635;28;94197;-66
2023/10/21 09:25:47;;;;;;;;;;;17.50;70.50;;;;;;10215336;28;95792;-66
2023/10/21 09:30:59;;;;;;;;;;;17.60;70.40;;;;;;10235012;28;93327;-67
2023/10/21 09:36:01;;;;;;;;;;;17.50;70.30;;;;;;10231483;28;94527;-67
2023/10/21 09:41:22;;;;;;;;;;;17.60;70.20;;;;;;10239749;28;93505;-66
2023/10/21 09:46:25;;;;;;;;;;;17.60;70.10;;;;;;10241159;28;93407;-66
2023/10/21 09:51:29;;;;;;;;;;;17.70;70.20;;;;;;10231425;28;93078;-67
2023/10/21 09:56:32;;;;;;;;;;;17.70;70.30;;;;;;10238799;28;93111;-67
2023/10/21 10:01:37;;;;;;;;;;;17.70;70.30;;;;;;10245172;28;92732;-66
2023/10/21 10:06:39;;;;;;;;;;;17.70;70.20;;;;;;10228483;28;93665;-67
2023/10/21 10:11:46;;;;;;;;;;;17.70;70.30;;;;;;10224091;28;93746;-67
2023/10/21 10:16:48;;;;;;;;;;;17.70;70.20;;;;;;10233266;28;96254;-67
2023/10/21 10:21:52;;;;;;;;;;;17.70;70.20;;;;;;10242702;28;94408;-66
2023/10/21 10:26:53;;;;;;;;;;;17.60;70.20;;;;;;10238276;28;94888;-65
2023/10/21 10:32:11;;;;;;;;;;;17.60;70.20;;;;;;10218188;28;94397;-67
2023/10/21 10:37:31;;;;;;;;;;;17.60;70.20;;;;;;10229870;28;94255;-66
2023/10/21 10:42:35;;;;;;;;;;;17.60;70.20;;;;;;10210428;28;94593;-67
2023/10/21 10:47:37;;;;;;;;;;;17.60;70.60;;;;;;10243324;28;94171;-69
2023/10/21 10:52:39;;;;;;;;;;;17.70;71.10;;;;;;10237553;28;92724;-68
2023/10/21 10:57:42;;;;;;;;;;;17.70;70.10;;;;;;10226709;28;93395;-68
2023/10/21 11:02:44;;;;;;;;;;;17.80;70.00;;;;;;10238833;28;94320;-68
2023/10/21 11:07:47;;;;;;;;;;;17.80;70.30;;;;;;10200028;28;97261;-68
2023/10/21 11:12:49;;;;;;;;;;;17.80;70.20;;;;;;10210927;28;94493;-69
2023/10/21 11:17:53;;;;;;;;;;;17.80;70.30;;;;;;10207027;28;93784;-69
2023/10/21 11:22:55;;;;;;;;;;;17.90;70.60;;;;;;10231157;28;93703;-68
2023/10/21 11:27:57;;;;;;;;;;;17.80;70.60;;;;;;10233130;28;93577;-68
2023/10/21 11:33:05;;;;;;;;;;;17.90;70.80;;;;;;10229130;28;94681;-69
2023/10/21 11:38:07;;;;;;;;;;;17.90;70.80;;;;;;10246629;28;92964;-68
2023/10/21 11:43:11;;;;;;;;;;;17.90;70.80;;;;;;10243814;28;93944;-69
2023/10/21 11:48:15;;;;;;;;;;;17.90;70.90;;;;;;10248043;28;93256;-68
2023/10/21 11:53:19;;;;;;;;;;;17.80;70.90;;;;;;10244513;28;93468;-69
2023/10/21 12:14:51;;;;;;;;;;;17.80;71.00;;;;;;10228081;28;94365;-69
2023/10/21 12:20:29;;;;;;;;;;;17.80;71.00;;;;;;10239824;28;94949;-69
2023/10/21 12:26:11;;;;;;;;;;;17.80;71.10;;;;;;10234812;28;94053;-69
2023/10/21 12:41:26;;;;;;;;;;;17.80;71.10;;;;;;10244368;28;93570;-69
2023/10/21 12:46:32;;;;;;;;;;;17.80;71.10;;;;;;10238083;28;94592;-68
2023/10/21 12:51:33;;;;;;;;;;;17.80;71.20;;;;;;10216694;28;96734;-68
2023/10/21 12:56:35;;;;;;;;;;;17.80;71.20;;;;;;10235969;28;94793;-69
2023/10/21 13:01:40;;;;;;;;;;;17.80;71.20;;;;;;10231931;28;94393;-69
2023/10/21 13:06:42;;;;;;;;;;;17.80;71.20;;;;;;10244432;28;92538;-69
2023/10/21 13:11:44;;;;;;;;;;;17.80;71.20;;;;;;10253005;28;94449;-69
2023/10/21 13:16:47;;;;;;;;;;;17.80;71.20;;;;;;10217350;28;93770;-69
2023/10/21 13:21:53;;;;;;;;;;;17.80;71.10;;;;;;10233637;28;93059;-69
2023/10/21 13:26:54;;;;;;;;;;;17.80;70.90;;;;;;10220631;28;93659;-69
2023/10/21 13:31:56;;;;;;;;;;;17.80;70.90;;;;;;10221955;28;93898;-70
2023/10/21 13:36:58;;;;;;;;;;;17.80;71.00;;;;;;10237448;28;93436;-69
2023/10/21 13:42:00;;;;;;;;;;;17.80;70.90;;;;;;10236257;28;97994;-69
2023/10/21 13:47:02;;;;;;;;;;;17.80;71.00;;;;;;10231926;28;93990;-69
2023/10/21 13:52:05;;;;;;;;;;;17.80;70.80;;;;;;10221759;28;94675;-70
2023/10/21 13:57:06;;;;;;;;;;;17.80;70.10;;;;;;10217816;28;94490;-70
2023/10/21 14:02:08;;;;;;;;;;;17.90;69.60;;;;;;10231416;28;92958;-70
2023/10/21 14:07:10;;;;;;;;;;;17.90;69.00;;;;;;10224256;28;94382;-70
2023/10/21 14:12:12;;;;;;;;;;;17.90;68.50;;;;;;10216445;28;94415;-69
2023/10/21 14:17:14;;;;;;;;;;;17.90;68.10;;;;;;10231735;28;93573;-69
2023/10/21 14:22:16;;;;;;;;;;;17.90;67.70;;;;;;10227413;28;94437;-69
2023/10/21 14:27:19;;;;;;;;;;;17.90;67.30;;;;;;10254963;28;94092;-69
2023/10/21 14:32:21;;;;;;;;;;;17.90;67.00;;;;;;10241691;28;96817;-69
2023/10/21 14:37:23;;;;;;;;;;;17.90;66.70;;;;;;10243250;28;93791;-69
2023/10/21 14:42:25;;;;;;;;;;;17.90;66.40;;;;;;10242304;28;94516;-70
2023/10/21 14:47:30;;;;;;;;;;;17.80;66.10;;;;;;10237797;28;94465;-69
2023/10/21 14:52:32;;;;;;;;;;;17.80;65.80;;;;;;10244367;28;93634;-69
2023/10/21 14:57:34;;;;;;;;;;;17.80;65.70;;;;;;10232019;28;93497;-68
2023/10/21 15:02:37;;;;;;;;;;;17.80;65.50;;;;;;10227055;28;94178;-69
2023/10/21 15:07:39;;;;;;;;;;;17.80;65.40;;;;;;10242075;28;93901;-69
2023/10/21 15:12:41;;;;;;;;;;;17.80;65.20;;;;;;10238706;28;94225;-68
2023/10/21 15:17:44;;;;;;;;;;;17.80;65.40;;;;;;10212614;28;96248;-67
2023/10/21 15:22:47;;;;;;;;;;;17.70;65.30;;;;;;10199955;28;97077;-68
2023/10/21 15:27:51;;;;;;;;;;;17.80;65.30;;;;;;10242792;28;94394;-68
2023/10/21 15:32:55;;;;;;;;;;;17.80;65.00;;;;;;10243441;28;94035;-68
2023/10/21 15:37:58;;;;;;;;;;;17.80;65.00;;;;;;10230866;28;93886;-68
2023/10/21 15:43:00;;;;;;;;;;;17.80;64.80;;;;;;10224775;28;93552;-68
2023/10/21 15:48:02;;;;;;;;;;;17.90;64.60;;;;;;10242185;28;93716;-68
2023/10/21 15:53:05;;;;;;;;;;;18.00;64.40;;;;;;10241850;28;94424;-68
2023/10/21 15:58:07;;;;;;;;;;;18.00;64.10;;;;;;10232689;28;93033;-68
2023/10/21 16:03:10;;;;;;;;;;;18.00;64.00;;;;;;10223060;28;93431;-68
2023/10/21 16:08:12;;;;;;;;;;;18.00;63.70;;;;;;10206558;28;94302;-68
2023/10/21 16:13:15;;;;;;;;;;;18.00;63.60;;;;;;10225596;28;96066;-68
2023/10/21 16:18:16;;;;;;;;;;;18.10;63.60;;;;;;10231823;28;93360;-68
2023/10/21 16:23:18;;;;;;;;;;;18.10;63.30;;;;;;10233702;28;93462;-68
2023/10/21 16:28:21;;;;;;;;;;;18.10;63.10;;;;;;10236509;28;94616;-68
2023/10/21 16:33:23;;;;;;;;;;;18.10;63.00;;;;;;10230505;28;93363;-68
2023/10/21 16:38:25;;;;;;;;;;;18.10;62.80;;;;;;10239504;28;93879;-68
2023/10/21 16:43:27;;;;;;;;;;;18.10;62.60;;;;;;10210717;28;93956;-68
2023/10/21 16:48:29;;;;;;;;;;;18.10;62.50;;;;;;10243731;28;93640;-68
2023/10/21 16:53:31;;;;;;;;;;;18.10;62.40;;;;;;10222274;28;94820;-68
2023/10/21 16:58:33;;;;;;;;;;;18.10;62.20;;;;;;10211695;28;94086;-68
2023/10/21 17:03:38;;;;;;;;;;;18.10;62.10;;;;;;10232628;28;96490;-68
2023/10/21 17:08:40;;;;;;;;;;;18.00;62.00;;;;;;10239073;28;94885;-68
2023/10/21 17:13:42;;;;;;;;;;;18.00;61.90;;;;;;10217118;28;94413;-68
2023/10/21 17:18:44;;;;;;;;;;;18.00;61.90;;;;;;10237104;28;94206;-68
2023/10/21 17:23:46;;;;;;;;;;;18.00;61.80;;;;;;10210578;28;93512;-68
2023/10/21 17:28:52;;;;;;;;;;;18.00;61.80;;;;;;10237415;28;93465;-67
2023/10/21 17:33:54;;;;;;;;;;;18.00;61.80;;;;;;10211072;28;93415;-68
2023/10/21 17:38:56;;;;;;;;;;;18.10;61.60;;;;;;10228335;28;94307;-67
2023/10/21 17:43:57;;;;;;;;;;;18.10;61.60;;;;;;10209900;28;94091;-67
2023/10/21 17:48:59;;;;;;;;;;;18.10;61.40;;;;;;10238893;28;94577;-68
2023/10/21 17:54:01;;;;;;;;;;;18.10;61.40;;;;;;10236166;28;95816;-68
2023/10/21 17:59:05;;;;;;;;;;;18.10;61.40;;;;;;10229268;28;94397;-68
2023/10/21 18:04:06;;;;;;;;;;;18.10;61.40;;;;;;10231117;28;93488;-68
2023/10/21 18:09:10;;;;;;;;;;;18.10;61.20;;;;;;10244038;28;94806;-69
2023/10/21 18:14:12;;;;;;;;;;;18.10;61.10;;;;;;10210399;28;93087;-68
2023/10/21 18:19:14;;;;;;;;;;;18.10;61.00;;;;;;10210457;28;94411;-68
2023/10/21 18:24:16;;;;;;;;;;;18.10;60.90;;;;;;10229729;28;94531;-68
2023/10/21 18:29:18;;;;;;;;;;;18.10;60.80;;;;;;10235797;28;93655;-67
2023/10/21 18:34:19;;;;;;;;;;;18.10;60.70;;;;;;10216655;28;94446;-68
2023/10/21 18:39:21;;;;;;;;;;;18.10;60.60;;;;;;10237890;28;94777;-68
2023/10/21 18:44:23;;;;;;;;;;;18.10;60.60;;;;;;10202994;28;96201;-68
2023/10/21 18:49:25;;;;;;;;;;;18.10;60.60;;;;;;10236367;28;93440;-68
2023/10/21 18:54:29;;;;;;;;;;;18.00;60.60;;;;;;10224095;28;93780;-68
2023/10/21 18:59:34;;;;;;;;;;;18.00;60.40;;;;;;10218185;28;94415;-68
2023/10/21 19:04:38;;;;;;;;;;;18.00;60.30;;;;;;10206763;28;94789;-68
2023/10/21 19:09:40;;;;;;;;;;;18.00;60.20;;;;;;10211473;28;93801;-68
2023/10/21 19:14:42;;;;;;;;;;;18.00;60.20;;;;;;10230585;28;93273;-68
2023/10/21 19:19:44;;;;;;;;;;;18.00;60.50;;;;;;10232928;28;92708;-68
2023/10/21 19:24:46;;;;;;;;;;;18.00;60.70;;;;;;10224413;28;93521;-68
2023/10/21 19:29:49;;;;;;;;;;;18.00;61.00;;;;;;10223674;28;93952;-68
2023/10/21 19:34:51;;;;;;;;;;;18.00;61.50;;;;;;10238471;28;96062;-68
2023/10/21 19:39:53;;;;;;;;;;;17.90;61.60;;;;;;10227603;28;93225;-68
2023/10/21 19:44:55;;;;;;;;;;;18.00;61.70;;;;;;10232712;28;93625;-68
2023/10/21 19:49:57;;;;;;;;;;;18.00;61.80;;;;;;10229547;28;93051;-68
2023/10/21 19:54:59;;;;;;;;;;;18.00;61.80;;;;;;10224750;28;93412;-68
2023/10/21 20:00:00;;;;;;;;;;;18.00;61.90;;;;;;10231539;28;93473;-68
2023/10/21 20:05:02;;;;;;;;;;;18.00;62.10;;;;;;10237230;28;93856;-68
2023/10/21 20:10:05;;;;;;;;;;;18.00;62.20;;;;;;10232923;28;93698;-74
2023/10/21 20:15:07;;;;;;;;;;;18.00;62.30;;;;;;10224906;28;94683;-68
2023/10/21 20:20:09;;;;;;;;;;;18.00;62.40;;;;;;10231524;28;93360;-69
2023/10/21 20:25:10;;;;;;;;;;;18.00;62.70;;;;;;10231530;28;96310;-68
2023/10/21 20:30:12;;;;;;;;;;;18.00;62.80;;;;;;10217922;28;94472;-68
2023/10/21 20:35:14;;;;;;;;;;;18.00;62.90;;;;;;10237071;28;94620;-68
2023/10/21 20:40:36;;;;;;;;;;;18.00;63.00;;;;;;10216633;28;93993;-68
2023/10/21 20:45:37;;;;;;;;;;;18.00;63.10;;;;;;10230616;28;93583;-68
2023/10/21 20:50:40;;;;;;;;;;;18.00;63.10;;;;;;10227625;28;94801;-68
2023/10/21 20:55:42;;;;;;;;;;;18.00;63.20;;;;;;10234766;28;94132;-68
2023/10/21 21:00:44;;;;;;;;;;;18.00;63.30;;;;;;10236974;28;93571;-68
2023/10/21 21:05:46;;;;;;;;;;;17.90;63.20;;;;;;10233003;28;93111;-68
2023/10/21 21:10:49;;;;;;;;;;;17.90;63.20;;;;;;10223726;28;94004;-68
2023/10/21 21:15:51;;;;;;;;;;;17.90;63.30;;;;;;10227279;28;97056;-68
2023/10/21 21:20:54;;;;;;;;;;;17.90;63.40;;;;;;10218889;28;93117;-68
2023/10/21 21:25:56;;;;;;;;;;;17.90;63.40;;;;;;10229798;28;93748;-68
2023/10/21 21:30:59;;;;;;;;;;;17.90;63.50;;;;;;10223381;28;94809;-68
2023/10/21 21:36:06;;;;;;;;;;;17.90;63.50;;;;;;10216829;28;92897;-68
2023/10/21 21:41:09;;;;;;;;;;;17.90;63.60;;;;;;10238998;28;94688;-68
2023/10/21 21:46:19;;;;;;;;;;;17.80;63.60;;;;;;10237815;28;94637;-68
2023/10/21 21:51:21;;;;;;;;;;;17.80;63.70;;;;;;10235922;28;94022;-68
2023/10/21 21:56:23;;;;;;;;;;;17.80;63.90;;;;;;10240498;28;94498;-68
2023/10/21 22:01:26;;;;;;;;;;;17.80;63.90;;;;;;10229992;28;93467;-68
2023/10/21 22:06:28;;;;;;;;;;;17.80;64.00;;;;;;10230223;28;96479;-68
2023/10/21 22:11:30;;;;;;;;;;;17.80;63.90;;;;;;10232118;28;93516;-68
2023/10/21 22:16:38;;;;;;;;;;;17.80;64.00;;;;;;10243614;28;97338;-68
2023/10/21 22:21:40;;;;;;;;;;;17.70;63.90;;;;;;10245165;28;94551;-68
2023/10/21 22:26:46;;;;;;;;;;;17.80;64.10;;;;;;10212457;28;93244;-68
2023/10/21 22:31:51;;;;;;;;;;;17.70;64.10;;;;;;10222265;28;114113;-68
2023/10/21 22:36:53;;;;;;;;;;;17.70;64.20;;;;;;10213227;28;93836;-68
2023/10/21 22:41:56;;;;;;;;;;;17.70;64.30;;;;;;10246002;28;93980;-68
2023/10/21 22:46:58;;;;;;;;;;;17.70;64.30;;;;;;10227814;28;93745;-68
2023/10/21 22:52:00;;;;;;;;;;;17.70;64.30;;;;;;10227416;28;94566;-68
2023/10/21 22:57:02;;;;;;;;;;;17.70;64.40;;;;;;10237470;28;95813;-68
2023/10/21 23:02:04;;;;;;;;;;;17.70;64.40;;;;;;10236668;28;92679;-68
2023/10/21 23:07:08;;;;;;;;;;;17.70;64.50;;;;;;10217129;28;93500;-68
2023/10/21 23:12:10;;;;;;;;;;;17.70;64.40;;;;;;10213231;28;95143;-68
2023/10/21 23:17:13;;;;;;;;;;;17.70;64.50;;;;;;10224027;28;93894;-68
2023/10/21 23:22:15;;;;;;;;;;;17.60;64.20;;;;;;10218179;28;94149;-67
2023/10/21 23:27:17;;;;;;;;;;;17.60;63.60;;;;;;10244065;28;94448;-68
2023/10/21 23:32:19;;;;;;;;;;;17.70;63.10;;;;;;10238661;28;93954;-68
2023/10/21 23:37:21;;;;;;;;;;;17.70;62.70;;;;;;10235089;28;93885;-68
2023/10/21 23:42:25;;;;;;;;;;;17.70;62.30;;;;;;10234245;28;93803;-68
2023/10/21 23:47:27;;;;;;;;;;;17.70;62.10;;;;;;10215497;28;96818;-68
2023/10/21 23:52:30;;;;;;;;;;;17.70;62.80;;;;;;10244004;28;94684;-68
2023/10/21 23:57:32;;;;;;;;;;;17.70;61.50;;;;;;10214031;28;93473;-68
